createdAt,value
2018-11-07T00:01:49.724Z,55.03
2018-11-07T00:04:18.204Z,48.27
2018-11-07T00:06:46.639Z,53.03
2018-11-07T00:09:15.077Z,43.90
2018-11-07T00:11:43.416Z,43.37
2018-11-07T00:14:12.008Z,40.57
2018-11-07T00:16:40.359Z,38.17
2018-11-07T00:19:08.757Z,40.93
2018-11-07T00:21:37.174Z,34.70
2018-11-07T00:24:05.566Z,34.80
2018-11-07T00:26:33.980Z,31.80
2018-11-07T00:29:02.359Z,35.53
2018-11-07T00:31:30.776Z,38.47
2018-11-07T00:33:59.709Z,34.60
2018-11-07T00:36:28.067Z,35.73
2018-11-07T00:38:56.493Z,38.30
2018-11-07T00:41:24.944Z,38.80
2018-11-07T00:43:53.396Z,36.33
2018-11-07T00:46:21.816Z,37.43
2018-11-07T00:48:50.262Z,42.30
2018-11-07T00:51:18.725Z,38.40
2018-11-07T00:53:47.205Z,36.43
2018-11-07T00:56:15.684Z,38.03
2018-11-07T00:58:44.180Z,42.07
2018-11-07T01:01:13.209Z,35.47
2018-11-07T01:03:41.594Z,37.70
2018-11-07T01:06:09.991Z,34.33
2018-11-07T01:08:39.005Z,35.70
2018-11-07T01:11:07.566Z,39.83
2018-11-07T01:13:36.265Z,44.00
2018-11-07T01:16:04.677Z,35.20
2018-11-07T01:18:33.047Z,32.67
2018-11-07T01:21:01.424Z,34.37
2018-11-07T01:23:29.827Z,35.33
2018-11-07T01:25:58.187Z,41.43
2018-11-07T01:28:26.638Z,38.60
2018-11-07T01:30:55.124Z,44.50
2018-11-07T01:33:23.504Z,40.50
2018-11-07T01:35:51.915Z,42.53
2018-11-07T01:38:20.261Z,43.10
2018-11-07T01:40:48.584Z,34.53
2018-11-07T01:43:17.007Z,42.60
2018-11-07T01:45:45.386Z,47.60
2018-11-07T01:48:13.891Z,41.63
2018-11-07T01:50:42.336Z,38.10
2018-11-07T01:53:10.775Z,37.43
2018-11-07T01:55:39.108Z,33.33
2018-11-07T01:58:07.655Z,39.47
2018-11-07T02:00:36.109Z,37.80
2018-11-07T02:03:04.647Z,39.30
2018-11-07T02:05:33.115Z,38.67
2018-11-07T02:08:01.487Z,39.97
2018-11-07T02:10:29.932Z,42.63
2018-11-07T02:12:58.374Z,40.80
2018-11-07T02:15:26.840Z,42.57
2018-11-07T02:17:55.244Z,39.40
2018-11-07T02:20:23.649Z,43.33
2018-11-07T02:22:52.022Z,41.77
2018-11-07T02:25:21.357Z,51.70
2018-11-07T02:27:49.781Z,42.47
2018-11-07T02:30:18.344Z,44.03
2018-11-07T02:32:46.782Z,54.90
2018-11-07T02:35:15.295Z,44.47
2018-11-07T02:37:43.729Z,39.23
2018-11-07T02:40:12.176Z,41.20
2018-11-07T02:42:40.548Z,46.23
2018-11-07T02:45:09.588Z,44.77
2018-11-07T02:47:38.212Z,46.73
2018-11-07T02:50:07.693Z,44.33
2018-11-07T02:52:36.176Z,42.40
2018-11-07T02:55:04.830Z,39.57
2018-11-07T02:57:33.248Z,38.13
2018-11-07T03:00:01.678Z,39.43
2018-11-07T03:02:30.128Z,38.80
2018-11-07T03:04:58.453Z,41.40
2018-11-07T03:07:26.824Z,35.33
2018-11-07T03:09:56.075Z,34.23
2018-11-07T03:12:24.517Z,35.10
2018-11-07T03:14:52.950Z,30.20
2018-11-07T03:17:21.828Z,32.10
2018-11-07T03:19:50.392Z,30.57
2018-11-07T03:22:18.743Z,30.70
2018-11-07T03:24:47.168Z,31.60
2018-11-07T03:27:15.657Z,29.10
2018-11-07T03:29:44.137Z,29.27
2018-11-07T03:32:12.583Z,28.50
2018-11-07T03:34:41.035Z,34.43
2018-11-07T03:37:09.520Z,34.30
2018-11-07T03:39:37.919Z,28.03
2018-11-07T03:42:06.372Z,30.73
2018-11-07T03:44:34.805Z,33.03
2018-11-07T03:47:03.814Z,35.43
2018-11-07T03:49:32.204Z,31.70
2018-11-07T03:52:00.615Z,31.43
2018-11-07T03:54:29.072Z,37.53
2018-11-07T03:56:57.468Z,37.60
2018-11-07T03:59:25.869Z,36.90
2018-11-07T04:01:54.729Z,35.90
2018-11-07T04:04:23.180Z,44.43
2018-11-07T04:06:51.513Z,33.47
2018-11-07T04:09:19.872Z,37.10
2018-11-07T04:11:48.468Z,32.47
2018-11-07T04:14:16.831Z,34.90
2018-11-07T04:16:45.327Z,37.47
2018-11-07T04:19:13.792Z,35.40
2018-11-07T04:21:42.261Z,36.13
2018-11-07T04:24:10.789Z,34.33
2018-11-07T04:26:39.582Z,36.57
2018-11-07T04:29:08.200Z,35.87
2018-11-07T04:31:36.620Z,39.10
2018-11-07T04:34:05.093Z,41.83
2018-11-07T04:36:33.490Z,36.83
2018-11-07T04:39:02.029Z,37.90
2018-11-07T04:41:30.457Z,36.57
2018-11-07T04:43:58.880Z,34.73
2018-11-07T04:46:27.348Z,45.03
2018-11-07T04:48:55.793Z,39.40
2018-11-07T04:51:24.248Z,46.13
2018-11-07T04:53:52.684Z,60.53
2018-11-07T04:56:21.308Z,41.23
2018-11-07T04:58:49.748Z,45.03
2018-11-07T05:01:18.116Z,43.10
2018-11-07T05:03:46.489Z,38.53
2018-11-07T05:06:15.000Z,34.03
2018-11-07T05:08:43.582Z,39.13
2018-11-07T05:11:11.920Z,36.37
2018-11-07T05:13:40.388Z,42.40
2018-11-07T05:16:10.908Z,50.63
2018-11-07T05:18:39.971Z,46.10
2018-11-07T05:21:08.388Z,37.53
2018-11-07T05:23:36.841Z,71.50
2018-11-07T05:26:05.472Z,50.00
2018-11-07T05:28:33.827Z,50.97
2018-11-07T05:31:02.212Z,51.00
2018-11-07T05:33:30.664Z,80.13
2018-11-07T05:35:59.092Z,69.00
2018-11-07T05:38:27.476Z,52.70
2018-11-07T05:40:55.898Z,44.60
2018-11-07T05:43:24.283Z,69.13
2018-11-07T05:45:52.972Z,44.63
2018-11-07T05:48:21.397Z,57.83
2018-11-07T05:50:49.837Z,90.30
2018-11-07T05:53:19.048Z,41.67
2018-11-07T05:55:47.472Z,58.80
2018-11-07T05:58:15.960Z,45.73
2018-11-07T06:00:44.492Z,60.93
2018-11-07T06:03:13.050Z,56.17
2018-11-07T06:05:41.493Z,57.67
2018-11-07T06:08:09.912Z,37.50
2018-11-07T06:10:38.403Z,36.97
2018-11-07T06:13:07.166Z,39.23
2018-11-07T06:15:35.569Z,41.50
2018-11-07T06:18:04.021Z,47.40
2018-11-07T06:20:32.358Z,39.57
2018-11-07T06:23:00.828Z,45.10
2018-11-07T06:25:29.269Z,56.37
2018-11-07T06:27:57.658Z,38.97
2018-11-07T06:30:26.049Z,39.80
2018-11-07T06:32:54.455Z,40.10
2018-11-07T06:35:22.833Z,54.73
2018-11-07T06:37:51.292Z,43.20
2018-11-07T06:40:19.796Z,41.33
2018-11-07T06:42:48.170Z,43.43
2018-11-07T06:45:17.161Z,43.57
2018-11-07T06:47:45.588Z,48.97
2018-11-07T06:50:15.099Z,48.53
2018-11-07T06:52:43.981Z,40.07
2018-11-07T06:55:12.995Z,37.83
2018-11-07T06:57:41.400Z,38.83
2018-11-07T07:00:13.196Z,33.97
2018-11-07T07:02:41.988Z,38.13
2018-11-07T07:05:10.409Z,38.77
2018-11-07T07:07:39.053Z,43.80
2018-11-07T07:10:12.245Z,37.40
2018-11-07T07:12:40.951Z,31.73
2018-11-07T07:15:11.552Z,41.73
2018-11-07T07:17:40.153Z,37.27
2018-11-07T07:20:10.884Z,32.80
2018-11-07T07:22:39.752Z,32.07
2018-11-07T07:25:09.030Z,31.67
2018-11-07T07:27:37.440Z,34.17
2018-11-07T07:30:08.498Z,36.70
2018-11-07T07:32:36.877Z,36.47
2018-11-07T07:35:05.585Z,39.93
2018-11-07T07:37:34.680Z,32.67
2018-11-07T07:40:03.724Z,35.87
2018-11-07T07:42:32.271Z,36.40
2018-11-07T07:45:00.681Z,33.20
2018-11-07T07:47:29.367Z,32.03
2018-11-07T07:49:58.434Z,37.60
2018-11-07T07:52:26.885Z,34.10
2018-11-07T07:54:55.252Z,37.90
2018-11-07T07:57:23.644Z,31.70
2018-11-07T07:59:52.121Z,29.30
2018-11-07T08:02:20.547Z,35.00
2018-11-07T08:04:48.948Z,35.77
2018-11-07T08:07:17.396Z,35.00
2018-11-07T08:09:45.841Z,32.70
2018-11-07T08:12:14.324Z,30.37
2018-11-07T08:14:42.697Z,30.60
2018-11-07T08:17:11.140Z,33.87
2018-11-07T08:19:39.474Z,33.77
2018-11-07T08:22:07.890Z,28.17
2018-11-07T08:24:36.312Z,33.30
2018-11-07T08:27:04.960Z,29.83
2018-11-07T08:29:33.371Z,27.77
2018-11-07T08:32:01.813Z,27.20
2018-11-07T08:34:30.188Z,27.27
2018-11-07T08:36:59.317Z,31.93
2018-11-07T08:39:27.700Z,35.07
2018-11-07T08:41:56.138Z,35.33
2018-11-07T08:44:24.548Z,35.00
2018-11-07T08:46:53.268Z,33.20
2018-11-07T08:49:21.673Z,31.43
2018-11-07T08:51:50.109Z,30.07
2018-11-07T08:54:18.509Z,34.07
2018-11-07T08:56:46.900Z,31.53
2018-11-07T08:59:15.326Z,27.87
2018-11-07T09:01:43.765Z,31.73
2018-11-07T09:11:09.231Z,32.27
2018-11-07T09:13:37.391Z,33.87
2018-11-07T09:16:05.547Z,31.30
2018-11-07T09:18:33.734Z,32.13
2018-11-07T09:21:01.904Z,31.47
2018-11-07T09:23:30.067Z,36.23
2018-11-07T09:25:58.260Z,31.67
2018-11-07T09:28:26.438Z,31.13
2018-11-07T09:30:54.620Z,28.47
2018-11-07T09:33:22.827Z,26.60
2018-11-07T09:35:50.986Z,28.03
2018-11-07T09:38:19.151Z,24.60
2018-11-07T09:40:47.318Z,29.17
2018-11-07T09:43:15.503Z,25.77
2018-11-07T09:45:43.678Z,28.30
2018-11-07T09:48:12.247Z,22.70
2018-11-07T09:50:40.405Z,22.47
2018-11-07T09:53:08.583Z,26.00
2018-11-07T09:55:36.747Z,26.40
2018-11-07T09:58:05.994Z,26.90
2018-11-07T10:00:34.470Z,29.63
2018-11-07T10:03:02.686Z,27.47
2018-11-07T10:05:30.899Z,30.50
2018-11-07T10:07:59.026Z,29.93
2018-11-07T10:10:27.219Z,28.90
2018-11-07T10:12:55.394Z,31.50
2018-11-07T10:15:23.567Z,32.03
2018-11-07T10:17:51.746Z,30.80
2018-11-07T10:20:22.310Z,31.13
2018-11-07T10:22:50.655Z,32.47
2018-11-07T10:25:19.062Z,31.87
2018-11-07T10:27:47.531Z,31.50
2018-11-07T10:30:17.769Z,30.73
2018-11-07T10:32:46.904Z,29.33
2018-11-07T10:35:15.342Z,30.63
2018-11-07T10:37:43.704Z,30.70
2018-11-07T10:40:16.395Z,32.27
2018-11-07T10:42:45.274Z,29.87
2018-11-07T10:45:13.963Z,34.10
2018-11-07T10:47:42.857Z,32.03
2018-11-07T10:50:12.653Z,33.83
2018-11-07T10:52:41.898Z,33.63
2018-11-07T10:55:10.806Z,28.37
2018-11-07T10:57:38.970Z,36.83
2018-11-07T11:00:15.310Z,31.40
2018-11-07T11:03:47.627Z,31.27
2018-11-07T11:06:15.798Z,34.53
2018-11-07T11:08:43.995Z,35.03
2018-11-07T11:11:12.213Z,36.23
2018-11-07T11:13:40.578Z,37.63
2018-11-07T11:16:08.750Z,32.90
2018-11-07T11:18:36.943Z,33.50
2018-11-07T11:21:05.285Z,34.07
2018-11-07T11:23:33.478Z,33.30
2018-11-07T11:26:01.663Z,31.80
2018-11-07T11:28:29.852Z,33.57
2018-11-07T11:30:58.035Z,36.27
2018-11-07T11:33:26.214Z,32.40
2018-11-07T11:35:54.379Z,33.97
2018-11-07T11:38:22.564Z,33.17
2018-11-07T11:40:50.751Z,31.70
2018-11-07T11:43:18.894Z,36.83
2018-11-07T11:45:47.554Z,34.53
2018-11-07T11:48:17.591Z,31.10
2018-11-07T11:50:45.742Z,33.83
2018-11-07T11:53:13.926Z,35.17
2018-11-07T11:55:42.087Z,31.43
2018-11-07T11:58:10.283Z,31.23
2018-11-07T12:00:38.454Z,30.00
2018-11-07T12:03:06.639Z,29.60
2018-11-07T12:05:35.019Z,34.47
2018-11-07T12:08:03.171Z,33.30
2018-11-07T12:10:31.373Z,29.13
2018-11-07T12:12:59.539Z,28.90
2018-11-07T12:15:28.331Z,29.63
2018-11-07T12:17:56.879Z,27.27
2018-11-07T12:20:25.056Z,27.13
2018-11-07T12:22:53.221Z,22.00
2018-11-07T12:25:22.064Z,19.20
2018-11-07T12:27:50.316Z,23.23
2018-11-07T12:30:20.072Z,22.53
2018-11-07T12:32:49.273Z,24.40
2018-11-07T12:35:18.147Z,21.90
2018-11-07T12:37:46.447Z,24.07
2018-11-07T12:40:15.515Z,24.70
2018-11-07T12:42:43.750Z,24.00
2018-11-07T12:45:13.067Z,24.20
2018-11-07T12:47:41.523Z,22.07
2018-11-07T12:50:12.706Z,25.27
2018-11-07T12:52:40.695Z,25.07
2018-11-07T12:55:10.212Z,25.67
2018-11-07T12:57:38.724Z,25.17
2018-11-07T13:00:10.359Z,25.83
2018-11-07T13:02:38.714Z,22.77
2018-11-07T13:05:07.742Z,31.80
2018-11-07T13:07:35.944Z,24.87
2018-11-07T13:10:04.516Z,24.07
2018-11-07T13:12:32.668Z,24.60
2018-11-07T13:15:00.847Z,24.57
2018-11-07T13:17:29.030Z,30.23
2018-11-07T13:19:57.558Z,41.87
2018-11-07T13:22:25.771Z,64.17
2018-11-07T13:24:53.915Z,30.20
2018-11-07T13:27:22.079Z,25.53
2018-11-07T13:29:50.255Z,24.83
2018-11-07T13:32:18.408Z,27.37
2018-11-07T13:34:46.628Z,32.20
2018-11-07T13:37:15.042Z,26.20
2018-11-07T13:39:43.349Z,25.03
2018-11-07T13:42:11.539Z,25.83
2018-11-07T13:44:40.370Z,26.67
2018-11-07T13:47:08.524Z,24.50
2018-11-07T13:49:36.671Z,29.43
2018-11-07T13:52:05.487Z,27.03
2018-11-07T13:54:33.667Z,26.37
2018-11-07T13:57:01.874Z,29.10
2018-11-07T13:59:30.067Z,26.23
2018-11-07T14:01:58.263Z,25.47
2018-11-07T14:04:26.491Z,74.33
2018-11-07T14:06:54.656Z,28.73
2018-11-07T14:09:22.850Z,25.03
2018-11-07T14:11:51.035Z,30.60
2018-11-07T14:14:19.215Z,26.73
2018-11-07T14:16:47.449Z,25.93
2018-11-07T14:19:15.779Z,26.83
2018-11-07T14:21:44.015Z,34.27
2018-11-07T14:24:12.211Z,30.13
2018-11-07T14:26:40.362Z,25.43
2018-11-07T14:29:08.614Z,27.17
2018-11-07T14:31:36.822Z,27.30
2018-11-07T14:34:06.003Z,27.53
2018-11-07T14:36:34.359Z,28.43
2018-11-07T14:39:02.571Z,27.93
2018-11-07T14:41:30.718Z,26.27
2018-11-07T14:43:58.933Z,28.97
2018-11-07T14:46:27.108Z,24.93
2018-11-07T14:48:55.275Z,25.23
2018-11-07T14:51:23.434Z,25.40
2018-11-07T14:53:51.610Z,28.00
2018-11-07T14:56:19.795Z,34.23
2018-11-07T14:58:48.160Z,27.23
2018-11-07T15:01:16.671Z,31.97
2018-11-07T15:03:44.931Z,47.00
2018-11-07T15:06:13.233Z,37.87
2018-11-07T15:08:41.346Z,45.30
2018-11-07T15:11:09.557Z,54.57
2018-11-07T15:13:37.682Z,55.13
2018-11-07T15:16:05.953Z,38.53
2018-11-07T15:18:34.223Z,31.27
2018-11-07T15:21:02.392Z,25.07
2018-11-07T15:23:30.646Z,30.90
2018-11-07T15:25:58.865Z,25.67
2018-11-07T15:28:27.048Z,27.00
2018-11-07T15:30:55.275Z,26.50
2018-11-07T15:33:23.633Z,24.23
2018-11-07T15:35:52.233Z,26.97
2018-11-07T15:38:20.393Z,24.23
2018-11-07T15:40:48.671Z,31.03
2018-11-07T15:43:17.419Z,26.03
2018-11-07T15:45:45.606Z,26.03
2018-11-07T15:48:13.784Z,24.83
2018-11-07T15:50:47.374Z,26.73
2018-11-07T15:53:15.583Z,27.67
2018-11-07T15:55:43.844Z,31.03
2018-11-07T15:58:12.960Z,30.67
2018-11-07T16:00:41.191Z,32.07
2018-11-07T16:03:09.355Z,31.40
2018-11-07T16:05:37.588Z,35.50
2018-11-07T16:08:06.058Z,34.50
2018-11-07T16:10:34.256Z,28.17
2018-11-07T16:13:02.592Z,31.47
2018-11-07T16:15:30.805Z,31.30
2018-11-07T16:17:59.530Z,31.40
2018-11-07T16:20:27.744Z,26.87
2018-11-07T16:22:55.994Z,27.23
2018-11-07T16:25:24.148Z,29.13
2018-11-07T16:27:52.390Z,25.93
2018-11-07T16:30:21.027Z,27.03
2018-11-07T16:32:49.227Z,24.20
2018-11-07T16:35:17.460Z,24.80
2018-11-07T16:37:45.683Z,20.53
2018-11-07T16:40:15.190Z,24.17
2018-11-07T16:42:43.915Z,19.83
2018-11-07T16:45:13.212Z,35.10
2018-11-07T16:47:41.592Z,26.30
2018-11-07T16:50:10.840Z,51.83
2018-11-07T16:52:39.305Z,50.47
2018-11-07T16:55:07.562Z,46.10
2018-11-07T16:57:36.241Z,44.87
2018-11-07T17:00:06.926Z,39.93
2018-11-07T17:02:35.072Z,33.37
2018-11-07T17:05:06.474Z,34.73
2018-11-07T17:07:34.607Z,25.20
2018-11-07T17:10:02.782Z,27.13
2018-11-07T17:12:30.994Z,35.27
2018-11-07T17:14:59.867Z,29.20
2018-11-07T17:17:28.028Z,29.90
2018-11-07T17:19:56.219Z,25.77
2018-11-07T17:22:24.383Z,23.37
2018-11-07T17:24:52.558Z,23.03
2018-11-07T17:27:21.853Z,31.23
2018-11-07T17:29:50.064Z,30.23
2018-11-07T17:32:18.576Z,21.33
2018-11-07T17:34:46.983Z,22.47
2018-11-07T17:37:15.375Z,23.97
2018-11-07T17:39:43.520Z,23.97
2018-11-07T17:42:11.675Z,24.50
2018-11-07T17:44:40.138Z,25.50
2018-11-07T17:47:08.308Z,26.17
2018-11-07T17:49:36.763Z,22.70
2018-11-07T17:52:05.455Z,24.10
2018-11-07T17:54:33.625Z,26.80
2018-11-07T17:57:01.835Z,28.40
2018-11-07T17:59:30.011Z,24.20
2018-11-07T18:01:58.221Z,29.83
2018-11-07T18:04:26.351Z,30.47
2018-11-07T18:06:54.535Z,28.33
2018-11-07T18:09:22.726Z,34.97
2018-11-07T18:11:50.912Z,30.90
2018-11-07T18:14:19.153Z,29.97
2018-11-07T18:16:47.342Z,33.63
2018-11-07T18:19:15.555Z,32.60
2018-11-07T18:21:43.709Z,28.70
2018-11-07T18:24:11.995Z,25.80
2018-11-07T18:26:40.807Z,31.97
2018-11-07T18:29:09.148Z,33.90
2018-11-07T18:31:38.383Z,35.53
2018-11-07T18:34:06.611Z,33.30
2018-11-07T18:36:34.791Z,41.80
2018-11-07T18:39:04.137Z,25.60
2018-11-07T18:41:32.319Z,22.63
2018-11-07T18:44:00.551Z,38.23
2018-11-07T18:46:28.740Z,32.30
2018-11-07T18:48:56.923Z,27.13
2018-11-07T18:51:25.183Z,31.23
2018-11-07T18:53:53.635Z,30.57
2018-11-07T18:56:21.818Z,25.43
2018-11-07T18:58:50.812Z,20.33
2018-11-07T19:01:18.918Z,26.57
2018-11-07T19:03:47.117Z,31.97
2018-11-07T19:06:15.307Z,41.53
2018-11-07T19:08:43.546Z,38.10
2018-11-07T19:11:11.740Z,24.57
2018-11-07T19:13:39.895Z,21.77
2018-11-07T19:16:08.070Z,20.23
2018-11-07T19:18:36.239Z,22.97
2018-11-07T19:21:04.743Z,26.13
2018-11-07T19:23:33.811Z,21.80
2018-11-07T19:26:02.020Z,16.67
2018-11-07T19:28:30.207Z,24.40
2018-11-07T19:30:58.423Z,31.27
2018-11-07T19:33:26.716Z,24.37
2018-11-07T19:35:54.894Z,25.03
2018-11-07T19:38:23.083Z,21.50
2018-11-07T19:40:51.258Z,23.00
2018-11-07T19:43:19.450Z,33.40
2018-11-07T19:45:47.769Z,45.63
2018-11-07T19:48:16.727Z,34.63
2018-11-07T19:50:45.152Z,39.60
2018-11-07T19:53:13.560Z,35.33
2018-11-07T19:55:42.395Z,29.47
2018-11-07T19:58:10.855Z,27.73
2018-11-07T20:00:50.515Z,27.27
2018-11-07T20:03:18.821Z,26.43
2018-11-07T20:05:47.320Z,28.47
2018-11-07T20:08:15.744Z,23.07
2018-11-07T20:10:44.264Z,25.50
2018-11-07T20:13:13.692Z,31.90
2018-11-07T20:15:42.132Z,27.90
2018-11-07T20:18:10.560Z,28.47
2018-11-07T20:20:38.972Z,25.40
2018-11-07T20:23:08.164Z,28.67
2018-11-07T20:25:36.503Z,28.27
2018-11-07T20:28:05.548Z,28.77
2018-11-07T20:30:34.533Z,29.17
2018-11-07T20:33:02.993Z,28.57
2018-11-07T20:35:31.540Z,27.20
2018-11-07T20:37:59.948Z,27.00
2018-11-07T20:40:28.656Z,36.93
2018-11-07T20:42:57.259Z,35.20
2018-11-07T20:45:25.724Z,25.60
2018-11-07T20:47:56.272Z,23.83
2018-11-07T20:50:24.698Z,22.87
2018-11-07T20:52:53.208Z,25.37
2018-11-07T20:55:21.653Z,28.70
2018-11-07T20:57:50.057Z,22.80
2018-11-07T21:00:21.016Z,22.07
2018-11-07T21:02:50.645Z,26.40
2018-11-07T21:05:19.043Z,28.17
2018-11-07T21:07:47.487Z,23.43
2018-11-07T21:10:19.231Z,27.70
2018-11-07T21:12:48.257Z,27.13
2018-11-07T21:15:17.608Z,24.40
2018-11-07T21:17:46.148Z,26.93
2018-11-07T21:20:14.616Z,27.13
2018-11-07T21:22:43.968Z,27.83
2018-11-07T21:25:12.664Z,31.47
2018-11-07T21:27:41.373Z,23.67
2018-11-07T21:30:12.810Z,28.00
2018-11-07T21:32:41.552Z,25.40
2018-11-07T21:35:10.606Z,24.03
2018-11-07T21:37:38.973Z,28.50
2018-11-07T21:40:09.053Z,23.03
2018-11-07T21:42:37.428Z,22.10
2018-11-07T21:45:08.187Z,23.47
2018-11-07T21:47:37.443Z,30.47
2018-11-07T21:50:07.140Z,23.57
2018-11-07T21:52:35.555Z,26.13
2018-11-07T21:55:04.323Z,24.93
2018-11-07T21:57:32.682Z,23.83
2018-11-07T22:00:01.064Z,21.93
2018-11-07T22:02:31.810Z,24.17
2018-11-07T22:05:10.735Z,24.20
2018-11-07T22:07:39.436Z,25.47
2018-11-07T22:10:08.788Z,22.87
2018-11-07T22:12:37.355Z,27.43
2018-11-07T22:15:06.296Z,22.93
2018-11-07T22:17:34.736Z,29.53
2018-11-07T22:20:03.132Z,24.87
2018-11-07T22:22:31.608Z,22.27
2018-11-07T22:24:59.988Z,23.60
2018-11-07T22:27:28.479Z,21.97
2018-11-07T22:29:56.894Z,21.50
2018-11-07T22:32:25.300Z,24.37
2018-11-07T22:34:53.696Z,20.80
2018-11-07T22:37:22.164Z,19.57
2018-11-07T22:39:50.646Z,17.77
2018-11-07T22:42:19.004Z,18.20
2018-11-07T22:44:47.450Z,19.50
2018-11-07T22:47:15.783Z,17.17
2018-11-07T22:49:44.289Z,18.67
2018-11-07T22:52:12.746Z,21.53
2018-11-07T22:54:41.088Z,16.70
2018-11-07T22:57:09.493Z,17.33
2018-11-07T22:59:37.816Z,26.47
2018-11-07T23:02:06.264Z,28.13
2018-11-07T23:04:34.626Z,32.27
2018-11-07T23:07:03.069Z,21.93
2018-11-07T23:09:31.489Z,29.07
2018-11-07T23:11:59.962Z,21.23
2018-11-07T23:14:28.401Z,24.80
2018-11-07T23:16:56.824Z,17.77
2018-11-07T23:19:25.240Z,21.20
2018-11-07T23:21:53.693Z,18.60
2018-11-07T23:24:22.158Z,15.53
2018-11-07T23:26:50.600Z,19.37
2018-11-07T23:29:19.901Z,16.77
2018-11-07T23:31:48.260Z,20.80
2018-11-07T23:34:16.716Z,18.30
2018-11-07T23:36:45.204Z,19.57
2018-11-07T23:39:13.620Z,16.80
2018-11-07T23:41:42.424Z,19.40
2018-11-07T23:44:10.845Z,18.97
2018-11-07T23:46:39.233Z,18.00
2018-11-07T23:49:07.641Z,18.53
2018-11-07T23:51:37.580Z,17.73
2018-11-07T23:54:06.462Z,14.83
2018-11-07T23:56:34.840Z,15.07
2018-11-07T23:59:03.312Z,15.33
